Time;durP1;ratioP1;P1;durP2;ratioP2;P2;SDS_P1;SDS_P2;PMS_P1;PMS_P2;Temp;Humidity;BMP_temperature;BMP_pressure;BME280_temperature;BME280_humidity;BME280_pressure;Samples;Min_cycle;Max_cycle;Signal;HPM_P1;HPM_P2
2022/05/19 00:01:54;;;;;;;3.30;2.87;;;13.90;99.90;;;;;;5052534;28;20189;-78
2022/05/19 00:04:20;;;;;;;7.10;2.77;;;;;;;;;;5059908;28;20562;-79
2022/05/19 00:06:45;;;;;;;5.20;2.33;;;13.70;99.90;;;;;;5058642;28;20646;-79
2022/05/19 00:09:11;;;;;;;3.90;2.87;;;13.80;99.90;;;;;;5059148;28;20257;-79
2022/05/19 00:11:38;;;;;;;4.07;3.17;;;;;;;;;;5058641;28;20558;-79
2022/05/19 00:14:04;;;;;;;4.60;3.10;;;13.60;99.90;;;;;;5058856;28;20209;-79
2022/05/19 00:16:30;;;;;;;3.87;2.70;;;;;;;;;;5058915;28;20635;-79
2022/05/19 00:18:56;;;;;;;4.87;2.90;;;13.60;99.90;;;;;;5061739;28;20254;-78
2022/05/19 00:21:22;;;;;;;5.80;3.30;;;13.60;99.90;;;;;;5064657;28;20205;-78
2022/05/19 00:23:48;;;;;;;4.37;3.57;;;;;;;;;;5067199;28;20189;-78
2022/05/19 00:26:14;;;;;;;3.97;3.53;;;;;;;;;;5070006;28;20188;-78
2022/05/19 00:28:40;;;;;;;4.20;3.73;;;;;;;;;;5067381;28;20181;-78
2022/05/19 00:31:06;;;;;;;6.53;4.13;;;13.40;99.90;;;;;;5060336;28;20272;-79
2022/05/19 00:33:33;;;;;;;5.07;4.00;;;;;;;;;;5059350;28;20201;-78
2022/05/19 00:36:05;;;;;;;4.60;3.60;;;13.30;99.90;;;;;;5061113;28;20189;-78
2022/05/19 00:38:31;;;;;;;4.47;3.23;;;13.30;99.90;;;;;;5063055;28;20213;-78
2022/05/19 00:40:58;;;;;;;4.10;2.97;;;;;;;;;;5064493;28;20636;-78
2022/05/19 00:43:37;;;;;;;6.87;3.67;;;13.20;99.90;;;;;;5062855;28;20656;-78
2022/05/19 00:46:18;;;;;;;7.40;3.97;;;13.30;99.90;;;;;;5063642;28;20177;-78
2022/05/19 00:48:53;;;;;;;4.73;3.10;;;13.30;99.90;;;;;;5062499;28;20787;-78
2022/05/19 00:51:20;;;;;;;3.53;3.23;;;;;;;;;;5063678;28;20165;-78
2022/05/19 00:53:50;;;;;;;4.10;3.00;;;;;;;;;;5061027;28;20178;-78
2022/05/19 00:56:21;;;;;;;6.03;3.47;;;13.10;99.90;;;;;;5062689;28;20725;-78
2022/05/19 00:58:54;;;;;;;4.40;3.57;;;13.00;99.90;;;;;;5062314;28;20511;-78
2022/05/19 01:01:20;;;;;;;4.87;3.47;;;13.00;99.90;;;;;;5064196;28;20162;-78
2022/05/19 01:03:52;;;;;;;3.87;3.30;;;12.80;99.90;;;;;;5064511;28;20178;-78
2022/05/19 01:06:20;;;;;;;6.87;3.60;;;12.90;99.90;;;;;;5065659;28;20177;-78
2022/05/19 01:08:52;;;;;;;3.90;3.50;;;13.00;99.90;;;;;;5065523;28;20180;-79
2022/05/19 01:11:18;;;;;;;5.83;3.93;;;12.90;99.90;;;;;;5064476;28;20245;-78
2022/05/19 01:13:44;;;;;;;4.00;3.30;;;;;;;;;;5064923;28;20255;-78
2022/05/19 01:16:10;;;;;;;3.60;3.07;;;12.90;99.90;;;;;;5064179;28;20178;-79
2022/05/19 01:18:37;;;;;;;3.93;3.57;;;12.70;99.90;;;;;;5063173;28;20178;-78
2022/05/19 01:21:03;;;;;;;3.97;3.50;;;;;;;;;;5063478;28;20169;-79
2022/05/19 01:23:42;;;;;;;5.23;3.40;;;;;;;;;;5064871;28;20171;-79
2022/05/19 01:26:27;;;;;;;4.10;3.70;;;12.90;99.90;;;;;;5064079;28;20173;-78
2022/05/19 01:28:54;;;;;;;5.80;3.60;;;;;;;;;;5063347;28;20180;-79
2022/05/19 01:31:48;;;;;;;5.83;4.43;;;12.90;99.90;;;;;;5063965;28;20174;-78
2022/05/19 01:34:15;;;;;;;4.20;3.80;;;12.70;99.90;;;;;;5063433;28;20268;-79
2022/05/19 01:36:41;;;;;;;4.87;3.43;;;;;;;;;;5064379;28;20252;-78
2022/05/19 01:39:14;;;;;;;4.53;3.90;;;12.90;99.90;;;;;;5062712;28;20170;-78
2022/05/19 01:41:51;;;;;;;7.80;3.97;;;12.90;99.90;;;;;;5063078;28;20223;-79
2022/05/19 01:44:38;;;;;;;9.20;4.03;;;12.90;99.90;;;;;;5061828;28;20288;-78
2022/05/19 01:47:29;;;;;;;4.50;3.63;;;12.80;99.90;;;;;;5062050;28;20165;-78
2022/05/19 01:50:13;;;;;;;4.93;3.93;;;12.80;99.90;;;;;;5072883;28;20189;-78
2022/05/19 01:53:14;;;;;;;5.47;3.60;;;12.70;99.90;;;;;;5061119;28;20210;-79
2022/05/19 01:56:09;;;;;;;5.43;3.80;;;12.60;99.90;;;;;;5061628;28;20240;-79
2022/05/19 01:58:47;;;;;;;5.13;3.97;;;12.60;99.90;;;;;;5060749;28;20165;-78
2022/05/19 02:01:15;;;;;;;4.33;3.83;;;12.70;99.90;;;;;;5059474;28;20170;-78
2022/05/19 02:03:41;;;;;;;5.00;4.40;;;;;;;;;;5059521;28;20304;-78
2022/05/19 02:06:21;;;;;;;6.60;4.70;;;12.50;99.90;;;;;;5066813;28;20177;-78
2022/05/19 02:08:50;;;;;;;5.50;4.00;;;;;;;;;;5070714;28;20184;-78
2022/05/19 02:11:34;;;;;;;4.23;3.83;;;12.50;99.90;;;;;;5069242;28;20550;-78
2022/05/19 02:14:05;;;;;;;4.83;3.70;;;12.50;99.90;;;;;;5063208;28;20220;-78
2022/05/19 02:16:31;;;;;;;6.53;4.30;;;;;;;;;;5063061;28;20519;-78
2022/05/19 02:18:58;;;;;;;6.53;4.20;;;12.50;99.90;;;;;;5063061;28;20177;-78
2022/05/19 02:21:25;;;;;;;6.60;4.70;;;;;;;;;;5060919;28;20186;-78
2022/05/19 02:23:50;;;;;;;5.13;4.63;;;12.30;99.90;;;;;;5060499;28;20189;-78
2022/05/19 02:26:16;;;;;;;7.73;4.40;;;;;;;;;;5060554;28;20187;-78
2022/05/19 02:29:06;;;;;;;5.10;4.23;;;12.30;99.90;;;;;;5062763;28;20231;-78
2022/05/19 02:31:33;;;;;;;5.90;4.60;;;12.30;99.90;;;;;;5061662;28;20212;-78
2022/05/19 02:33:59;;;;;;;9.43;4.70;;;;;;;;;;5061424;28;20254;-78
2022/05/19 02:36:25;;;;;;;8.17;4.87;;;;;;;;;;5062451;28;20584;-78
2022/05/19 02:38:51;;;;;;;7.37;4.93;;;;;;;;;;5060960;28;20268;-78
2022/05/19 02:41:17;;;;;;;6.03;4.97;;;12.00;99.90;;;;;;5061197;28;20200;-78
2022/05/19 02:43:43;;;;;;;9.47;5.17;;;;;;;;;;5061510;28;20174;-78
2022/05/19 02:46:08;;;;;;;5.10;4.60;;;11.90;99.90;;;;;;5061837;28;20190;-78
2022/05/19 02:48:34;;;;;;;10.07;5.03;;;12.10;99.90;;;;;;5060813;28;20188;-78
2022/05/19 02:51:00;;;;;;;6.63;5.00;;;;;;;;;;5060250;28;20197;-78
2022/05/19 02:53:26;;;;;;;6.10;4.70;;;12.00;99.90;;;;;;5060151;28;20205;-78
2022/05/19 02:55:53;;;;;;;4.97;4.30;;;;;;;;;;5060083;28;20193;-78
2022/05/19 02:58:19;;;;;;;6.97;5.07;;;12.00;99.90;;;;;;5062788;28;20174;-78
2022/05/19 03:00:46;;;;;;;7.47;5.17;;;;;;;;;;5059270;28;20185;-78
2022/05/19 03:03:12;;;;;;;6.37;5.33;;;;;;;;;;5062604;28;20296;-78
2022/05/19 03:05:38;;;;;;;8.63;5.53;;;11.60;99.90;;;;;;5062728;28;20569;-78
2022/05/19 03:08:06;;;;;;;7.83;6.17;;;11.80;99.90;;;;;;5062867;28;20260;-78
2022/05/19 03:10:32;;;;;;;8.23;5.20;;;11.70;99.90;;;;;;5061982;28;20185;-78
2022/05/19 03:12:58;;;;;;;9.20;5.63;;;11.70;99.90;;;;;;5062448;28;20221;-78
2022/05/19 03:15:24;;;;;;;6.07;5.47;;;11.70;99.90;;;;;;5064156;28;20197;-78
2022/05/19 03:17:50;;;;;;;5.90;5.20;;;;;;;;;;5064521;28;20181;-78
2022/05/19 03:20:16;;;;;;;7.03;5.53;;;;;;;;;;5065060;28;20178;-78
2022/05/19 03:22:43;;;;;;;6.33;5.40;;;;;;;;;;5062592;28;20561;-78
2022/05/19 03:25:09;;;;;;;6.00;4.83;;;11.80;99.90;;;;;;5060910;28;20219;-78
2022/05/19 03:27:37;;;;;;;6.47;5.30;;;11.80;99.90;;;;;;5058838;28;20659;-78
2022/05/19 03:30:06;;;;;;;9.57;6.10;;;11.80;99.90;;;;;;5058263;28;20181;-78
2022/05/19 03:32:31;;;;;;;6.97;5.07;;;11.80;99.90;;;;;;5059808;28;20208;-79
2022/05/19 03:34:57;;;;;;;8.97;5.27;;;11.90;99.90;;;;;;5058894;28;20193;-79
2022/05/19 03:37:23;;;;;;;7.80;5.67;;;11.70;99.90;;;;;;5056922;28;20173;-78
2022/05/19 03:39:48;;;;;;;6.30;5.20;;;11.80;99.90;;;;;;5057400;28;20184;-78
2022/05/19 03:42:14;;;;;;;5.93;5.03;;;;;;;;;;5057885;28;20268;-78
2022/05/19 03:44:40;;;;;;;5.50;5.00;;;11.60;99.90;;;;;;5061938;28;20197;-80
2022/05/19 03:47:06;;;;;;;7.40;5.47;;;11.70;99.90;;;;;;5064275;28;20234;-79
2022/05/19 03:49:32;;;;;;;6.00;5.40;;;11.60;99.90;;;;;;5069368;28;20286;-79
2022/05/19 03:51:58;;;;;;;7.10;5.47;;;11.60;99.90;;;;;;5069836;28;20205;-78
2022/05/19 03:54:24;;;;;;;6.67;5.07;;;;;;;;;;5064153;28;20195;-78
2022/05/19 03:56:50;;;;;;;6.53;4.53;;;11.70;99.90;;;;;;5059613;28;20185;-78
2022/05/19 03:59:16;;;;;;;7.53;4.63;;;11.60;99.90;;;;;;5059426;28;20235;-78
2022/05/19 04:01:42;;;;;;;10.00;5.93;;;11.50;99.90;;;;;;5060030;28;20182;-78
2022/05/19 04:04:08;;;;;;;5.00;4.30;;;;;;;;;;5059966;28;20201;-78
2022/05/19 04:06:35;;;;;;;7.23;4.80;;;11.70;99.90;;;;;;5058933;28;20178;-78
2022/05/19 04:09:03;;;;;;;5.67;5.17;;;11.70;99.90;;;;;;5059215;28;20231;-78
2022/05/19 04:11:29;;;;;;;5.70;4.93;;;11.70;99.90;;;;;;5057736;28;20203;-78
2022/05/19 04:13:55;;;;;;;6.03;5.13;;;;;;;;;;5059354;28;20272;-79
2022/05/19 04:16:20;;;;;;;8.73;6.40;;;11.80;99.90;;;;;;5059112;28;20181;-78
2022/05/19 04:18:46;;;;;;;6.77;5.57;;;11.80;99.90;;;;;;5058883;28;20219;-78
2022/05/19 04:21:12;;;;;;;7.07;5.80;;;;;;;;;;5057167;28;20173;-78
2022/05/19 04:23:38;;;;;;;8.87;5.43;;;;;;;;;;5058358;28;20169;-78
2022/05/19 04:26:04;;;;;;;7.47;5.67;;;;;;;;;;5059454;28;20213;-78
2022/05/19 04:28:30;;;;;;;7.00;4.67;;;12.00;99.90;;;;;;5058885;28;20174;-78
2022/05/19 04:30:56;;;;;;;5.50;5.00;;;11.90;99.90;;;;;;5059038;28;20180;-78
2022/05/19 04:33:22;;;;;;;6.63;5.40;;;12.20;99.90;;;;;;5058110;28;20205;-78
2022/05/19 04:35:48;;;;;;;9.20;5.57;;;;;;;;;;5059313;28;20196;-78
2022/05/19 04:38:16;;;;;;;5.10;4.63;;;12.10;99.90;;;;;;5057378;28;20204;-78
2022/05/19 04:40:47;;;;;;;5.60;5.07;;;12.30;99.90;;;;;;5056432;28;20660;-78
2022/05/19 04:43:13;;;;;;;5.13;4.63;;;12.60;99.90;;;;;;5056893;28;20179;-78
2022/05/19 04:45:39;;;;;;;9.03;5.23;;;12.40;99.90;;;;;;5058202;28;20209;-78
2022/05/19 04:48:05;;;;;;;6.37;5.57;;;12.40;99.90;;;;;;5056100;28;20182;-78
2022/05/19 04:50:31;;;;;;;7.33;5.20;;;12.60;99.90;;;;;;5056640;28;20177;-78
2022/05/19 04:53:00;;;;;;;4.37;3.97;;;12.40;99.90;;;;;;5056392;28;20208;-78
2022/05/19 04:55:27;;;;;;;9.10;4.60;;;12.80;99.90;;;;;;5056594;28;20232;-78
2022/05/19 04:57:52;;;;;;;6.40;4.40;;;12.60;99.90;;;;;;5057710;28;20173;-78
2022/05/19 05:00:19;;;;;;;7.27;4.00;;;12.80;99.90;;;;;;5056136;28;20661;-78
2022/05/19 05:02:45;;;;;;;5.43;4.07;;;12.90;99.90;;;;;;5055803;28;20260;-78
2022/05/19 05:05:10;;;;;;;5.30;4.47;;;13.00;99.90;;;;;;5055743;28;20627;-78
2022/05/19 05:07:36;;;;;;;6.53;4.30;;;13.10;99.90;;;;;;5057841;28;20180;-78
2022/05/19 05:10:03;;;;;;;4.90;3.63;;;13.20;99.90;;;;;;5057764;28;20173;-79
2022/05/19 05:12:29;;;;;;;6.60;3.70;;;13.40;99.90;;;;;;5056782;28;20237;-78
2022/05/19 05:14:55;;;;;;;4.60;3.93;;;13.60;99.90;;;;;;5056810;28;20562;-79
2022/05/19 05:17:21;;;;;;;5.93;3.70;;;;;;;;;;5056396;28;20208;-78
2022/05/19 05:19:48;;;;;;;4.93;3.70;;;13.80;99.90;;;;;;5057671;28;20196;-79
2022/05/19 05:22:14;;;;;;;3.97;3.10;;;13.90;99.90;;;;;;5057086;28;20264;-79
2022/05/19 05:24:40;;;;;;;4.57;3.20;;;;;;;;;;5056456;28;20201;-78
2022/05/19 05:27:05;;;;;;;6.27;3.17;;;14.00;99.90;;;;;;5058146;28;20180;-79
2022/05/19 05:29:32;;;;;;;4.20;3.20;;;;;;;;;;5058422;28;20169;-78
2022/05/19 05:31:58;;;;;;;7.33;4.20;;;14.20;99.90;;;;;;5056875;28;20232;-79
2022/05/19 05:34:24;;;;;;;7.20;3.70;;;14.40;99.90;;;;;;5054036;28;20197;-79
2022/05/19 05:36:49;;;;;;;5.67;3.30;;;14.50;99.90;;;;;;5061972;28;20184;-79
2022/05/19 05:39:15;;;;;;;5.87;3.17;;;14.60;99.90;;;;;;5059219;28;20253;-79
2022/05/19 05:41:41;;;;;;;10.57;3.27;;;14.70;99.90;;;;;;5057752;28;20230;-79
2022/05/19 05:44:07;;;;;;;8.77;3.50;;;14.90;99.90;;;;;;5058587;28;20562;-79
2022/05/19 05:46:33;;;;;;;9.70;3.87;;;14.90;99.90;;;;;;5058459;28;20320;-79
2022/05/19 05:48:58;;;;;;;12.20;4.03;;;15.00;99.90;;;;;;5059170;28;20502;-79
2022/05/19 05:51:24;;;;;;;7.40;4.00;;;15.10;99.90;;;;;;5062218;28;20201;-79
2022/05/19 05:53:50;;;;;;;7.40;3.57;;;15.30;99.90;;;;;;5060928;28;20227;-79
2022/05/19 05:56:18;;;;;;;10.17;3.80;;;15.30;99.90;;;;;;5061484;28;20686;-79
2022/05/19 05:58:44;;;;;;;5.77;2.73;;;15.40;99.90;;;;;;5064479;28;20528;-79
2022/05/19 06:01:12;;;;;;;6.83;3.43;;;15.60;99.90;;;;;;5062021;28;20177;-79
2022/05/19 06:03:38;;;;;;;7.00;3.50;;;15.70;99.90;;;;;;5063683;28;20172;-78
2022/05/19 06:06:05;;;;;;;6.20;2.73;;;15.80;99.90;;;;;;5063084;28;20192;-80
2022/05/19 06:08:31;;;;;;;9.77;3.60;;;16.00;99.90;;;;;;5063824;28;20174;-79
2022/05/19 06:10:59;;;;;;;5.67;3.17;;;16.20;99.90;;;;;;5064373;28;20655;-79
2022/05/19 06:13:25;;;;;;;4.30;2.40;;;16.30;99.90;;;;;;5062335;28;20205;-79
2022/05/19 06:15:51;;;;;;;12.40;3.70;;;16.40;99.90;;;;;;5063313;28;20217;-79
2022/05/19 06:18:17;;;;;;;8.30;3.33;;;16.60;99.90;;;;;;5065248;28;20172;-78
2022/05/19 06:20:44;;;;;;;6.33;3.20;;;16.70;99.90;;;;;;5064115;28;20166;-78
2022/05/19 06:23:11;;;;;;;11.97;3.60;;;16.90;99.90;;;;;;5062500;28;20189;-80
2022/05/19 06:25:37;;;;;;;6.00;2.83;;;17.00;99.90;;;;;;5063184;28;20198;-79
2022/05/19 06:28:03;;;;;;;7.73;3.00;;;17.10;99.90;;;;;;5064721;28;20165;-80
2022/05/19 06:30:31;;;;;;;14.30;4.77;;;17.20;99.90;;;;;;5062640;28;20178;-79
2022/05/19 06:32:57;;;;;;;5.00;2.60;;;17.30;99.90;;;;;;5063766;28;20197;-79
2022/05/19 06:35:29;;;;;;;9.13;2.87;;;17.50;99.90;;;;;;5063938;28;20247;-79
2022/05/19 06:37:56;;;;;;;4.73;2.40;;;17.60;99.90;;;;;;5065094;28;20180;-79
2022/05/19 06:40:24;;;;;;;6.37;2.70;;;17.70;99.90;;;;;;5063284;28;20176;-79
2022/05/19 06:42:50;;;;;;;3.10;2.37;;;17.80;99.90;;;;;;5064378;28;20179;-79
2022/05/19 06:45:19;;;;;;;7.60;2.97;;;18.00;99.90;;;;;;5064466;28;20197;-79
2022/05/19 06:47:45;;;;;;;3.50;2.33;;;18.00;99.90;;;;;;5065746;28;20200;-79
2022/05/19 06:50:12;;;;;;;4.53;2.40;;;18.10;99.90;;;;;;5062147;28;20174;-79
2022/05/19 06:52:52;;;;;;;3.40;2.30;;;18.30;99.90;;;;;;5061364;28;20275;-78
2022/05/19 06:55:20;;;;;;;3.07;2.53;;;18.60;99.90;;;;;;5063308;28;20278;-79
2022/05/19 06:57:47;;;;;;;2.73;2.30;;;18.70;99.90;;;;;;5063402;28;20244;-78
2022/05/19 07:00:17;;;;;;;2.87;2.23;;;18.80;99.90;;;;;;5061314;28;20186;-78
2022/05/19 07:02:44;;;;;;;2.47;2.27;;;18.90;99.90;;;;;;5059870;28;20186;-79
2022/05/19 07:05:11;;;;;;;4.57;2.40;;;19.10;99.90;;;;;;5060289;28;20193;-78
2022/05/19 07:07:37;;;;;;;3.67;2.23;;;19.20;99.90;;;;;;5061995;28;20177;-79
2022/05/19 07:10:03;;;;;;;4.67;2.17;;;19.30;99.90;;;;;;5062720;28;20229;-78
2022/05/19 07:12:29;;;;;;;6.50;2.40;;;19.50;99.90;;;;;;5060890;28;20218;-79
2022/05/19 07:14:56;;;;;;;3.07;2.30;;;19.60;99.90;;;;;;5071829;28;20234;-78
2022/05/19 07:17:21;;;;;;;7.27;2.53;;;19.80;99.90;;;;;;5075227;28;20534;-78
2022/05/19 07:22:34;;;;;;;6.53;2.30;;;20.20;99.90;;;;;;5059931;28;20203;-79
2022/05/19 07:25:01;;;;;;;3.80;2.60;;;20.30;99.90;;;;;;5058113;28;20293;-79
2022/05/19 07:27:27;;;;;;;3.90;2.33;;;20.50;99.90;;;;;;5058375;28;20216;-79
2022/05/19 07:29:53;;;;;;;4.37;2.60;;;20.60;99.90;;;;;;5057265;28;20187;-79
2022/05/19 07:32:20;;;;;;;4.20;2.70;;;20.80;99.90;;;;;;5057192;28;20213;-78
2022/05/19 07:34:46;;;;;;;4.13;2.60;;;21.00;99.90;;;;;;5058015;28;20582;-79
2022/05/19 07:37:12;;;;;;;5.63;2.50;;;21.20;99.90;;;;;;5057956;28;20182;-79
2022/05/19 07:39:38;;;;;;;3.50;2.87;;;21.40;99.90;;;;;;5057262;28;20180;-79
2022/05/19 07:42:04;;;;;;;3.83;2.80;;;21.70;99.90;;;;;;5055899;28;20180;-79
2022/05/19 07:44:30;;;;;;;7.00;2.83;;;21.90;99.90;;;;;;5055585;28;20201;-79
2022/05/19 07:46:56;;;;;;;5.77;2.20;;;22.00;99.90;;;;;;5056089;28;20623;-80
2022/05/19 07:49:22;;;;;;;3.43;2.47;;;22.20;99.90;;;;;;5055186;28;20532;-80
2022/05/19 07:51:48;;;;;;;2.50;2.30;;;22.40;99.90;;;;;;5059477;28;20733;-79
2022/05/19 07:54:24;;;;;;;3.47;2.53;;;22.60;99.90;;;;;;5059336;28;20228;-80
2022/05/19 07:56:51;;;;;;;4.63;2.63;;;22.70;99.90;;;;;;5060070;28;20536;-79
2022/05/19 07:59:17;;;;;;;3.37;2.87;;;23.00;99.90;;;;;;5061099;28;20522;-79
2022/05/19 08:01:44;;;;;;;5.30;2.80;;;23.20;99.90;;;;;;5061290;28;20563;-79
2022/05/19 08:04:11;;;;;;;6.37;2.77;;;23.40;99.90;;;;;;5060930;28;20190;-80
2022/05/19 08:06:37;;;;;;;4.20;2.53;;;23.60;99.90;;;;;;5059360;28;20174;-79
2022/05/19 08:10:20;;;;;;;6.33;2.77;;;23.70;99.90;;;;;;5060559;28;20185;-79
2022/05/19 08:11:50;;;;;;;3.80;2.97;;;23.90;99.90;;;;;;5060714;28;20209;-79
2022/05/19 08:17:00;;;;;;;5.10;2.67;;;24.60;99.90;;;;;;5061791;28;20186;-80
2022/05/19 08:19:26;;;;;;;13.07;4.37;;;25.00;99.90;;;;;;5061779;28;20179;-79
2022/05/19 08:21:51;;;;;;;7.00;2.63;;;25.30;99.90;;;;;;5060609;28;20182;-79
2022/05/19 08:24:17;;;;;;;5.17;2.60;;;25.50;99.90;;;;;;5061187;28;20228;-80
2022/05/19 08:26:43;;;;;;;3.63;2.57;;;25.80;99.90;;;;;;5061937;28;20225;-80
2022/05/19 08:29:08;;;;;;;5.37;2.70;;;25.70;99.90;;;;;;5060462;28;20251;-80
2022/05/19 08:31:35;;;;;;;3.83;3.00;;;25.60;99.90;;;;;;5061965;28;20179;-79
2022/05/19 08:34:03;;;;;;;3.47;2.50;;;25.60;99.90;;;;;;5062526;28;20169;-80
2022/05/19 08:36:29;;;;;;;3.90;2.67;;;25.90;99.90;;;;;;5062319;28;20664;-80
2022/05/19 08:38:55;;;;;;;6.70;2.27;;;25.90;99.60;;;;;;5061003;28;20191;-79
2022/05/19 08:41:48;;;;;;;3.40;2.27;;;25.90;98.90;;;;;;5061012;28;20697;-79
2022/05/19 08:44:22;;;;;;;3.50;2.20;;;25.90;98.50;;;;;;5061946;28;20643;-78
2022/05/19 08:46:50;;;;;;;5.93;2.70;;;25.90;98.10;;;;;;5062842;28;20182;-80
2022/05/19 08:49:42;;;;;;;6.60;2.50;;;26.00;98.60;;;;;;5062122;28;20687;-79
2022/05/19 08:52:14;;;;;;;4.87;2.50;;;26.20;97.40;;;;;;5061525;28;20268;-80
2022/05/19 08:54:44;;;;;;;4.20;2.70;;;26.20;97.90;;;;;;5061722;28;20204;-80
2022/05/19 08:57:24;;;;;;;5.80;2.77;;;26.20;96.80;;;;;;5065153;28;20182;-79
2022/05/19 09:00:02;;;;;;;4.60;2.50;;;26.40;98.60;;;;;;5066638;28;20176;-79
2022/05/19 09:02:47;;;;;;;7.90;2.20;;;26.40;98.40;;;;;;5066034;28;20176;-79
2022/05/19 09:05:37;;;;;;;3.00;2.47;;;26.70;96.50;;;;;;5058957;28;20207;-79
2022/05/19 09:08:03;;;;;;;7.27;2.43;;;;;;;;;;5058716;28;20243;-82
2022/05/19 09:10:29;;;;;;;3.47;2.10;;;;;;;;;;5055182;28;20192;-77
2022/05/19 09:13:16;;;;;;;3.00;2.00;;;27.40;99.90;;;;;;5053644;28;20236;-78
2022/05/19 09:15:44;;;;;;;4.37;2.70;;;27.30;93.70;;;;;;5055667;28;20204;-79
2022/05/19 09:18:12;;;;;;;3.87;2.40;;;27.50;94.10;;;;;;5056097;28;20174;-80
2022/05/19 09:20:45;;;;;;;3.97;2.57;;;27.20;93.20;;;;;;5057631;28;20689;-80
2022/05/19 09:23:11;;;;;;;6.67;2.30;;;27.40;94.00;;;;;;5057343;28;20170;-80
2022/05/19 09:25:46;;;;;;;3.83;2.60;;;27.50;93.30;;;;;;5059638;28;20582;-78
2022/05/19 09:28:12;;;;;;;3.63;2.40;;;27.50;93.20;;;;;;5059981;28;20169;-80
2022/05/19 09:30:52;;;;;;;6.07;2.30;;;27.50;94.10;;;;;;5060556;28;20200;-81
2022/05/19 09:33:21;;;;;;;4.40;2.80;;;28.10;92.30;;;;;;5059305;28;20746;-78
2022/05/19 09:35:54;;;;;;;9.90;2.23;;;28.10;91.80;;;;;;5060082;28;20198;-77
2022/05/19 09:38:36;;;;;;;7.87;2.27;;;28.10;99.90;;;;;;5058862;28;20249;-78
2022/05/19 09:41:20;;;;;;;4.93;2.07;;;28.10;99.90;;;;;;5059244;28;20166;-80
2022/05/19 09:43:51;;;;;;;6.07;2.50;;;28.30;96.60;;;;;;5057948;28;20178;-79
2022/05/19 09:46:17;;;;;;;4.57;2.50;;;;;;;;;;5058219;28;20655;-79
2022/05/19 09:48:56;;;;;;;4.77;2.60;;;28.60;89.80;;;;;;5059539;28;20170;-80
2022/05/19 09:51:22;;;;;;;4.53;2.10;;;;;;;;;;5058292;28;20634;-80
2022/05/19 09:53:59;;;;;;;5.57;2.33;;;28.20;90.70;;;;;;5058154;28;20269;-79
2022/05/19 09:56:37;;;;;;;2.93;2.20;;;28.10;92.40;;;;;;5057748;28;20160;-79
2022/05/19 09:59:13;;;;;;;5.47;2.17;;;28.40;90.80;;;;;;5056924;28;20529;-79
2022/05/19 10:01:42;;;;;;;4.07;2.00;;;28.20;87.00;;;;;;5058122;28;20189;-80
2022/05/19 10:04:32;;;;;;;2.80;1.60;;;28.30;90.80;;;;;;5059104;28;20216;-79
2022/05/19 10:07:19;;;;;;;4.87;2.10;;;29.00;87.70;;;;;;5060675;28;20181;-80
2022/05/19 10:09:47;;;;;;;4.97;2.50;;;28.90;85.90;;;;;;5060256;28;20643;-79
2022/05/19 10:12:20;;;;;;;2.97;2.30;;;29.00;84.80;;;;;;5058145;28;20229;-77
2022/05/19 10:14:50;;;;;;;3.67;2.00;;;28.90;84.20;;;;;;5057494;28;20640;-77
2022/05/19 10:17:41;;;;;;;2.90;2.03;;;29.00;86.60;;;;;;5059956;28;20171;-79
2022/05/19 10:20:21;;;;;;;5.00;2.90;;;29.20;87.40;;;;;;5061494;28;20254;-79
2022/05/19 10:23:19;;;;;;;7.97;2.40;;;29.60;91.30;;;;;;5062315;28;20190;-80
2022/05/19 10:25:52;;;;;;;6.10;2.33;;;29.50;82.00;;;;;;5055744;28;20228;-79
2022/05/19 10:31:25;;;;;;;5.27;2.50;;;29.40;88.90;;;;;;5069997;28;20189;-80
2022/05/19 10:34:14;;;;;;;3.40;2.37;;;29.80;86.00;;;;;;5062418;28;20217;-83
2022/05/19 10:36:46;;;;;;;7.13;2.47;;;29.80;78.50;;;;;;5060749;28;20191;-81
2022/05/19 10:39:33;;;;;;;7.67;2.90;;;29.80;93.00;;;;;;5063387;28;20189;-79
2022/05/19 10:42:05;;;;;;;3.97;2.50;;;29.80;76.30;;;;;;5068558;28;20179;-80
2022/05/19 10:44:56;;;;;;;3.67;2.40;;;29.70;76.50;;;;;;5065880;28;20196;-81
2022/05/19 10:47:47;;;;;;;4.83;2.67;;;29.90;84.40;;;;;;5063833;28;20213;-81
2022/05/19 10:50:45;;;;;;;3.90;2.23;;;29.80;76.70;;;;;;5058755;28;20175;-81
2022/05/19 10:53:26;;;;;;;4.47;2.30;;;29.90;73.30;;;;;;5059095;28;20215;-81
2022/05/19 10:56:16;;;;;;;5.00;2.57;;;30.30;73.10;;;;;;5058546;28;20208;-79
2022/05/19 10:59:11;;;;;;;3.30;2.10;;;30.50;73.50;;;;;;5057751;28;20157;-78
2022/05/19 11:01:39;;;;;;;4.13;2.73;;;30.90;73.40;;;;;;5057793;28;20161;-78
2022/05/19 11:04:14;;;;;;;5.90;2.80;;;30.90;71.80;;;;;;5056861;28;20197;-78
2022/05/19 11:06:54;;;;;;;6.33;2.70;;;30.90;68.10;;;;;;5055761;28;20178;-78
2022/05/19 11:09:38;;;;;;;3.90;2.97;;;31.10;71.20;;;;;;5057513;28;20611;-77
2022/05/19 11:12:17;;;;;;;3.63;2.40;;;31.10;69.80;;;;;;5057012;28;20193;-78
2022/05/19 11:15:07;;;;;;;5.10;2.80;;;30.90;71.60;;;;;;5057229;28;20241;-78
2022/05/19 11:17:42;;;;;;;9.53;2.47;;;31.00;70.10;;;;;;5057729;28;20158;-82
2022/05/19 11:20:19;;;;;;;3.73;2.20;;;31.00;68.90;;;;;;5058230;28;20195;-80
2022/05/19 11:22:49;;;;;;;4.63;1.93;;;31.10;68.60;;;;;;5058302;28;20628;-80
2022/05/19 11:28:25;;;;;;;3.60;2.20;;;31.40;68.60;;;;;;5058498;28;20213;-80
2022/05/19 11:31:04;;;;;;;6.67;2.00;;;31.60;70.00;;;;;;5056869;28;20659;-79
2022/05/19 11:33:36;;;;;;;3.97;2.27;;;31.70;63.10;;;;;;5058164;28;20245;-80
2022/05/19 11:36:17;;;;;;;4.60;2.10;;;31.80;66.40;;;;;;5058484;28;20210;-80
2022/05/19 11:39:00;;;;;;;4.93;2.10;;;31.90;62.60;;;;;;5057233;28;20166;-80
2022/05/19 11:41:30;;;;;;;4.83;2.50;;;31.80;64.10;;;;;;5057008;28;20188;-80
2022/05/19 11:44:19;;;;;;;6.53;2.70;;;32.10;60.90;;;;;;5058268;28;20158;-81
2022/05/19 11:46:58;;;;;;;9.07;2.43;;;32.60;64.00;;;;;;5061246;28;20197;-79
2022/05/19 11:55:36;;;;;;;6.90;2.53;;;32.70;64.80;;;;;;5057883;28;20244;-81
2022/05/19 11:58:12;;;;;;;2.97;1.77;;;32.90;58.60;;;;;;5057216;28;20188;-81
2022/05/19 12:00:46;;;;;;;3.03;2.20;;;32.90;57.10;;;;;;5056623;28;20166;-81
2022/05/19 12:03:15;;;;;;;4.30;2.20;;;32.70;58.80;;;;;;5058856;28;20171;-80
2022/05/19 12:06:03;;;;;;;5.77;2.30;;;32.70;56.80;;;;;;5057644;28;20249;-81
2022/05/19 12:08:39;;;;;;;3.97;2.20;;;32.60;58.00;;;;;;5056808;28;20543;-82
2022/05/19 12:11:22;;;;;;;3.03;2.20;;;32.80;57.80;;;;;;5055786;28;20164;-81
2022/05/19 12:13:51;;;;;;;4.13;2.30;;;33.40;57.80;;;;;;5057477;28;20207;-81
2022/05/19 12:16:45;;;;;;;2.60;2.10;;;33.30;59.50;;;;;;5057750;28;20263;-80
2022/05/19 12:19:32;;;;;;;4.13;1.93;;;33.50;56.80;;;;;;5065248;28;20172;-79
2022/05/19 12:21:59;;;;;;;4.23;2.30;;;33.70;59.30;;;;;;5060346;28;20188;-80
2022/05/19 12:24:31;;;;;;;3.37;2.40;;;34.00;55.80;;;;;;5056746;28;20272;-80
2022/05/19 12:27:00;;;;;;;4.07;2.27;;;34.10;61.10;;;;;;5055781;28;20175;-81
2022/05/19 12:29:52;;;;;;;5.67;2.20;;;33.80;53.50;;;;;;5055757;28;20187;-80
2022/05/19 12:32:26;;;;;;;5.23;2.30;;;33.80;53.70;;;;;;5056828;28;20219;-81
2022/05/19 12:35:01;;;;;;;3.57;2.13;;;33.40;55.40;;;;;;5056484;28;20203;-81
2022/05/19 12:37:42;;;;;;;5.67;2.03;;;33.50;56.70;;;;;;5057540;28;20160;-81
2022/05/19 12:40:30;;;;;;;4.50;2.20;;;33.70;54.60;;;;;;5057525;28;20158;-80
2022/05/19 12:43:26;;;;;;;4.53;2.20;;;33.50;52.40;;;;;;5056515;28;20176;-81
2022/05/19 12:45:59;;;;;;;5.77;2.00;;;33.00;55.90;;;;;;5056074;28;20286;-80
2022/05/19 12:48:33;;;;;;;7.63;2.10;;;32.90;53.00;;;;;;5055526;28;20637;-80
2022/05/19 12:51:15;;;;;;;6.67;2.33;;;33.00;52.70;;;;;;5055614;28;20177;-80
2022/05/19 12:53:50;;;;;;;5.90;2.60;;;33.40;52.90;;;;;;5056304;28;20199;-81
2022/05/19 12:56:40;;;;;;;3.47;2.20;;;33.60;51.00;;;;;;5056300;28;20177;-81
2022/05/19 12:59:31;;;;;;;2.70;2.20;;;33.70;51.60;;;;;;5056902;28;20200;-80
2022/05/19 13:02:00;;;;;;;5.17;2.20;;;33.50;53.00;;;;;;5059120;28;20170;-81
2022/05/19 13:04:26;;;;;;;7.57;2.70;;;33.60;51.90;;;;;;5058514;28;20208;-80
2022/05/19 13:07:07;;;;;;;2.23;1.90;;;33.60;54.80;;;;;;5055383;28;20182;-80
2022/05/19 13:09:34;;;;;;;4.83;2.03;;;33.40;53.70;;;;;;5056860;28;20177;-80
2022/05/19 13:12:05;;;;;;;7.30;2.40;;;33.60;51.50;;;;;;5056771;28;20201;-80
2022/05/19 13:14:35;;;;;;;6.20;2.43;;;33.60;52.80;;;;;;5054628;28;20220;-80
2022/05/19 13:17:07;;;;;;;5.10;2.00;;;33.80;51.40;;;;;;5056848;28;20184;-80
2022/05/19 13:19:36;;;;;;;3.17;1.67;;;33.50;47.50;;;;;;5055103;28;20178;-80
2022/05/19 13:22:18;;;;;;;4.13;2.03;;;33.70;53.10;;;;;;5056853;28;20182;-80
2022/05/19 13:24:46;;;;;;;5.57;2.47;;;34.10;51.70;;;;;;5056115;28;20198;-80
2022/05/19 13:30:46;;;;;;;4.30;2.17;;;34.00;48.00;;;;;;5056563;28;20253;-80
2022/05/19 13:33:37;;;;;;;3.90;2.10;;;33.70;50.10;;;;;;5070042;28;20220;-80
2022/05/19 13:36:05;;;;;;;5.17;1.83;;;34.00;53.90;;;;;;5056570;28;20280;-80
2022/05/19 13:38:31;;;;;;;6.37;1.80;;;34.20;47.60;;;;;;5056914;28;20178;-80
2022/05/19 13:40:57;;;;;;;3.37;1.90;;;33.90;52.70;;;;;;5056766;28;20197;-80
2022/05/19 13:43:32;;;;;;;3.23;1.97;;;33.70;48.40;;;;;;5055424;28;20604;-80